sensor_id;sensor_type;location;lat;lon;timestamp;temperature;humidity
37052;DHT22;22964;52.272;13.356;2022-09-29T00:01:08;12.40;69.00
37052;DHT22;22964;52.272;13.356;2022-09-29T00:03:35;12.40;68.90
37052;DHT22;22964;52.272;13.356;2022-09-29T00:06:01;12.30;68.70
37052;DHT22;22964;52.272;13.356;2022-09-29T00:08:28;12.30;68.70
37052;DHT22;22964;52.272;13.356;2022-09-29T00:10:54;12.30;68.90
37052;DHT22;22964;52.272;13.356;2022-09-29T00:13:20;12.20;68.90
37052;DHT22;22964;52.272;13.356;2022-09-29T00:16:01;12.20;69.10
37052;DHT22;22964;52.272;13.356;2022-09-29T00:18:28;12.10;69.30
37052;DHT22;22964;52.272;13.356;2022-09-29T00:23:26;12.10;69.40
37052;DHT22;22964;52.272;13.356;2022-09-29T00:26:00;12.10;69.40
37052;DHT22;22964;52.272;13.356;2022-09-29T00:28:26;12.00;69.70
37052;DHT22;22964;52.272;13.356;2022-09-29T00:30:52;12.00;69.70
37052;DHT22;22964;52.272;13.356;2022-09-29T00:33:17;12.00;69.60
37052;DHT22;22964;52.272;13.356;2022-09-29T00:35:43;12.00;69.40
37052;DHT22;22964;52.272;13.356;2022-09-29T00:38:09;12.00;69.40
37052;DHT22;22964;52.272;13.356;2022-09-29T00:40:34;12.00;69.40
37052;DHT22;22964;52.272;13.356;2022-09-29T00:43:00;12.00;69.30
37052;DHT22;22964;52.272;13.356;2022-09-29T00:45:26;11.90;69.20
37052;DHT22;22964;52.272;13.356;2022-09-29T00:48:07;11.90;69.30
37052;DHT22;22964;52.272;13.356;2022-09-29T00:50:49;11.80;69.60
37052;DHT22;22964;52.272;13.356;2022-09-29T00:53:18;11.80;69.60
37052;DHT22;22964;52.272;13.356;2022-09-29T00:56:02;11.80;69.60
37052;DHT22;22964;52.272;13.356;2022-09-29T00:58:48;11.80;69.60
37052;DHT22;22964;52.272;13.356;2022-09-29T01:01:21;11.70;69.70
37052;DHT22;22964;52.272;13.356;2022-09-29T01:03:48;11.70;69.60
37052;DHT22;22964;52.272;13.356;2022-09-29T01:06:38;11.70;70.60
37052;DHT22;22964;52.272;13.356;2022-09-29T01:09:10;11.70;69.90
37052;DHT22;22964;52.272;13.356;2022-09-29T01:11:37;11.60;69.90
37052;DHT22;22964;52.272;13.356;2022-09-29T01:14:07;11.60;69.90
37052;DHT22;22964;52.272;13.356;2022-09-29T01:16:35;11.60;70.10
37052;DHT22;22964;52.272;13.356;2022-09-29T01:22:08;11.50;70.20
37052;DHT22;22964;52.272;13.356;2022-09-29T01:24:58;11.60;70.30
37052;DHT22;22964;52.272;13.356;2022-09-29T01:30:40;11.50;70.50
37052;DHT22;22964;52.272;13.356;2022-09-29T01:33:26;11.50;71.00
37052;DHT22;22964;52.272;13.356;2022-09-29T01:36:04;11.50;70.80
37052;DHT22;22964;52.272;13.356;2022-09-29T01:41:15;11.40;72.00
37052;DHT22;22964;52.272;13.356;2022-09-29T01:43:51;11.50;71.00
37052;DHT22;22964;52.272;13.356;2022-09-29T01:46:25;11.40;71.00
37052;DHT22;22964;52.272;13.356;2022-09-29T01:48:54;11.40;71.00
37052;DHT22;22964;52.272;13.356;2022-09-29T01:51:28;11.40;71.00
37052;DHT22;22964;52.272;13.356;2022-09-29T01:53:59;11.40;71.10
37052;DHT22;22964;52.272;13.356;2022-09-29T01:56:43;11.40;71.10
37052;DHT22;22964;52.272;13.356;2022-09-29T02:01:43;11.40;71.30
37052;DHT22;22964;52.272;13.356;2022-09-29T02:04:45;11.40;71.30
37052;DHT22;22964;52.272;13.356;2022-09-29T02:07:21;11.30;71.30
37052;DHT22;22964;52.272;13.356;2022-09-29T02:09:54;11.30;71.30
37052;DHT22;22964;52.272;13.356;2022-09-29T02:12:25;11.30;71.30
37052;DHT22;22964;52.272;13.356;2022-09-29T02:14:52;11.30;71.30
37052;DHT22;22964;52.272;13.356;2022-09-29T02:17:20;11.30;71.30
37052;DHT22;22964;52.272;13.356;2022-09-29T02:19:49;11.30;71.40
37052;DHT22;22964;52.272;13.356;2022-09-29T02:22:16;11.30;72.40
37052;DHT22;22964;52.272;13.356;2022-09-29T02:24:43;11.30;71.70
37052;DHT22;22964;52.272;13.356;2022-09-29T02:27:09;11.30;72.70
37052;DHT22;22964;52.272;13.356;2022-09-29T02:29:36;11.30;72.00
37052;DHT22;22964;52.272;13.356;2022-09-29T02:32:06;11.30;72.10
37052;DHT22;22964;52.272;13.356;2022-09-29T02:34:37;11.30;72.30
37052;DHT22;22964;52.272;13.356;2022-09-29T02:37:25;11.30;72.40
37052;DHT22;22964;52.272;13.356;2022-09-29T02:45:57;11.40;72.90
37052;DHT22;22964;52.272;13.356;2022-09-29T02:48:57;11.50;73.20
37052;DHT22;22964;52.272;13.356;2022-09-29T02:51:37;11.50;73.20
37052;DHT22;22964;52.272;13.356;2022-09-29T02:54:26;11.50;73.10
37052;DHT22;22964;52.272;13.356;2022-09-29T02:57:14;11.50;73.20
37052;DHT22;22964;52.272;13.356;2022-09-29T03:00:02;11.50;73.20
37052;DHT22;22964;52.272;13.356;2022-09-29T03:02:32;11.50;73.30
37052;DHT22;22964;52.272;13.356;2022-09-29T03:04:57;11.50;73.00
37052;DHT22;22964;52.272;13.356;2022-09-29T03:07:23;11.50;73.10
37052;DHT22;22964;52.272;13.356;2022-09-29T03:09:49;11.50;73.20
37052;DHT22;22964;52.272;13.356;2022-09-29T03:12:15;11.50;73.20
37052;DHT22;22964;52.272;13.356;2022-09-29T03:14:42;11.60;73.30
37052;DHT22;22964;52.272;13.356;2022-09-29T03:17:08;11.60;73.30
37052;DHT22;22964;52.272;13.356;2022-09-29T03:19:33;11.60;73.30
37052;DHT22;22964;52.272;13.356;2022-09-29T03:21:59;11.60;73.30
37052;DHT22;22964;52.272;13.356;2022-09-29T03:24:25;11.60;73.40
37052;DHT22;22964;52.272;13.356;2022-09-29T03:26:51;11.60;73.40
37052;DHT22;22964;52.272;13.356;2022-09-29T03:29:17;11.60;73.30
37052;DHT22;22964;52.272;13.356;2022-09-29T03:31:42;11.60;73.30
37052;DHT22;22964;52.272;13.356;2022-09-29T03:34:08;11.60;73.30
37052;DHT22;22964;52.272;13.356;2022-09-29T03:36:33;11.60;73.30
37052;DHT22;22964;52.272;13.356;2022-09-29T03:38:59;11.70;73.40
37052;DHT22;22964;52.272;13.356;2022-09-29T03:41:25;11.60;73.40
37052;DHT22;22964;52.272;13.356;2022-09-29T03:43:50;11.60;73.50
37052;DHT22;22964;52.272;13.356;2022-09-29T03:46:16;11.70;73.50
37052;DHT22;22964;52.272;13.356;2022-09-29T03:48:41;11.70;73.50
37052;DHT22;22964;52.272;13.356;2022-09-29T03:51:07;11.70;73.60
37052;DHT22;22964;52.272;13.356;2022-09-29T03:53:33;11.70;73.60
37052;DHT22;22964;52.272;13.356;2022-09-29T03:56:00;11.70;73.70
37052;DHT22;22964;52.272;13.356;2022-09-29T03:58:26;11.70;73.70
37052;DHT22;22964;52.272;13.356;2022-09-29T04:00:52;11.70;73.60
37052;DHT22;22964;52.272;13.356;2022-09-29T04:03:17;11.70;74.40
37052;DHT22;22964;52.272;13.356;2022-09-29T04:05:47;11.70;73.60
37052;DHT22;22964;52.272;13.356;2022-09-29T04:08:13;11.80;73.70
37052;DHT22;22964;52.272;13.356;2022-09-29T04:10:40;11.80;74.50
37052;DHT22;22964;52.272;13.356;2022-09-29T04:13:06;11.70;73.50
37052;DHT22;22964;52.272;13.356;2022-09-29T04:15:32;11.70;73.60
37052;DHT22;22964;52.272;13.356;2022-09-29T04:17:58;11.80;73.70
37052;DHT22;22964;52.272;13.356;2022-09-29T04:20:24;11.80;73.60
37052;DHT22;22964;52.272;13.356;2022-09-29T04:22:50;11.80;73.70
37052;DHT22;22964;52.272;13.356;2022-09-29T04:25:16;11.80;73.70
37052;DHT22;22964;52.272;13.356;2022-09-29T04:27:42;11.80;73.70
37052;DHT22;22964;52.272;13.356;2022-09-29T04:30:08;11.80;73.70
37052;DHT22;22964;52.272;13.356;2022-09-29T04:32:34;11.80;73.70
37052;DHT22;22964;52.272;13.356;2022-09-29T04:35:00;11.80;73.60
37052;DHT22;22964;52.272;13.356;2022-09-29T04:37:25;11.80;73.50
37052;DHT22;22964;52.272;13.356;2022-09-29T04:39:51;11.70;73.40
37052;DHT22;22964;52.272;13.356;2022-09-29T04:42:20;11.80;73.50
37052;DHT22;22964;52.272;13.356;2022-09-29T04:44:46;11.80;73.40
37052;DHT22;22964;52.272;13.356;2022-09-29T04:47:12;11.80;73.50
37052;DHT22;22964;52.272;13.356;2022-09-29T04:49:37;11.80;73.60
37052;DHT22;22964;52.272;13.356;2022-09-29T04:52:03;11.80;73.60
37052;DHT22;22964;52.272;13.356;2022-09-29T04:54:33;11.70;73.60
37052;DHT22;22964;52.272;13.356;2022-09-29T04:56:59;11.70;73.70
37052;DHT22;22964;52.272;13.356;2022-09-29T04:59:26;11.80;73.70
37052;DHT22;22964;52.272;13.356;2022-09-29T05:01:52;11.80;73.70
37052;DHT22;22964;52.272;13.356;2022-09-29T05:04:18;11.70;73.70
37052;DHT22;22964;52.272;13.356;2022-09-29T05:06:44;11.70;73.70
37052;DHT22;22964;52.272;13.356;2022-09-29T05:09:10;11.70;73.70
37052;DHT22;22964;52.272;13.356;2022-09-29T05:11:35;11.70;73.70
37052;DHT22;22964;52.272;13.356;2022-09-29T05:14:01;11.70;73.80
37052;DHT22;22964;52.272;13.356;2022-09-29T05:16:27;11.80;74.00
37052;DHT22;22964;52.272;13.356;2022-09-29T05:18:53;11.70;73.90
37052;DHT22;22964;52.272;13.356;2022-09-29T05:21:19;11.70;73.90
37052;DHT22;22964;52.272;13.356;2022-09-29T05:23:45;11.70;73.90
37052;DHT22;22964;52.272;13.356;2022-09-29T05:26:12;11.70;73.90
37052;DHT22;22964;52.272;13.356;2022-09-29T05:28:42;11.70;74.00
37052;DHT22;22964;52.272;13.356;2022-09-29T05:31:09;11.70;74.20
37052;DHT22;22964;52.272;13.356;2022-09-29T05:33:35;11.70;74.10
37052;DHT22;22964;52.272;13.356;2022-09-29T05:36:08;11.70;74.10
37052;DHT22;22964;52.272;13.356;2022-09-29T05:38:35;11.70;74.20
37052;DHT22;22964;52.272;13.356;2022-09-29T05:41:19;11.70;74.20
37052;DHT22;22964;52.272;13.356;2022-09-29T05:43:49;11.70;74.60
37052;DHT22;22964;52.272;13.356;2022-09-29T05:46:15;11.80;74.60
37052;DHT22;22964;52.272;13.356;2022-09-29T05:48:42;11.80;74.40
37052;DHT22;22964;52.272;13.356;2022-09-29T05:51:13;11.80;74.40
37052;DHT22;22964;52.272;13.356;2022-09-29T05:53:40;11.80;74.50
37052;DHT22;22964;52.272;13.356;2022-09-29T05:56:11;11.80;74.40
37052;DHT22;22964;52.272;13.356;2022-09-29T05:58:38;11.70;74.60
37052;DHT22;22964;52.272;13.356;2022-09-29T06:01:05;11.80;74.60
37052;DHT22;22964;52.272;13.356;2022-09-29T06:03:32;11.80;74.20
37052;DHT22;22964;52.272;13.356;2022-09-29T06:06:04;11.80;74.40
37052;DHT22;22964;52.272;13.356;2022-09-29T06:08:29;11.80;74.70
37052;DHT22;22964;52.272;13.356;2022-09-29T06:11:05;11.80;74.60
37052;DHT22;22964;52.272;13.356;2022-09-29T06:13:31;11.80;74.90
37052;DHT22;22964;52.272;13.356;2022-09-29T06:15:59;11.80;74.80
37052;DHT22;22964;52.272;13.356;2022-09-29T06:18:25;11.80;75.10
37052;DHT22;22964;52.272;13.356;2022-09-29T06:20:51;11.80;75.00
37052;DHT22;22964;52.272;13.356;2022-09-29T06:23:16;11.80;75.10
37052;DHT22;22964;52.272;13.356;2022-09-29T06:25:42;11.80;75.20
37052;DHT22;22964;52.272;13.356;2022-09-29T06:28:08;11.80;75.20
37052;DHT22;22964;52.272;13.356;2022-09-29T06:30:33;11.90;75.40
37052;DHT22;22964;52.272;13.356;2022-09-29T06:32:59;11.90;75.50
37052;DHT22;22964;52.272;13.356;2022-09-29T06:35:25;11.90;75.50
37052;DHT22;22964;52.272;13.356;2022-09-29T06:38:09;11.90;75.60
37052;DHT22;22964;52.272;13.356;2022-09-29T06:40:35;12.00;75.70
37052;DHT22;22964;52.272;13.356;2022-09-29T06:43:01;12.00;75.80
37052;DHT22;22964;52.272;13.356;2022-09-29T06:45:27;12.00;75.90
37052;DHT22;22964;52.272;13.356;2022-09-29T06:47:59;12.00;76.00
37052;DHT22;22964;52.272;13.356;2022-09-29T06:50:25;12.00;76.20
37052;DHT22;22964;52.272;13.356;2022-09-29T06:52:50;12.10;76.00
37052;DHT22;22964;52.272;13.356;2022-09-29T06:55:16;12.10;76.00
37052;DHT22;22964;52.272;13.356;2022-09-29T06:57:42;12.10;76.10
37052;DHT22;22964;52.272;13.356;2022-09-29T07:00:10;12.10;76.20
37052;DHT22;22964;52.272;13.356;2022-09-29T07:02:36;12.20;76.30
37052;DHT22;22964;52.272;13.356;2022-09-29T07:05:03;12.20;76.50
37052;DHT22;22964;52.272;13.356;2022-09-29T07:07:29;12.20;76.60
37052;DHT22;22964;52.272;13.356;2022-09-29T07:09:55;12.30;76.50
37052;DHT22;22964;52.272;13.356;2022-09-29T07:12:20;12.30;76.40
37052;DHT22;22964;52.272;13.356;2022-09-29T07:14:46;12.30;76.60
37052;DHT22;22964;52.272;13.356;2022-09-29T07:17:12;12.40;76.70
37052;DHT22;22964;52.272;13.356;2022-09-29T07:19:39;12.40;76.80
37052;DHT22;22964;52.272;13.356;2022-09-29T07:22:05;12.50;77.00
37052;DHT22;22964;52.272;13.356;2022-09-29T07:24:31;12.50;77.20
37052;DHT22;22964;52.272;13.356;2022-09-29T07:26:57;12.50;77.20
37052;DHT22;22964;52.272;13.356;2022-09-29T07:29:22;12.60;77.30
37052;DHT22;22964;52.272;13.356;2022-09-29T07:31:48;12.60;77.40
37052;DHT22;22964;52.272;13.356;2022-09-29T07:34:17;12.70;77.50
37052;DHT22;22964;52.272;13.356;2022-09-29T07:36:43;12.70;77.60
37052;DHT22;22964;52.272;13.356;2022-09-29T07:39:09;12.80;77.70
37052;DHT22;22964;52.272;13.356;2022-09-29T07:41:34;12.80;77.60
37052;DHT22;22964;52.272;13.356;2022-09-29T07:44:00;12.90;77.50
37052;DHT22;22964;52.272;13.356;2022-09-29T07:46:26;13.00;77.50
37052;DHT22;22964;52.272;13.356;2022-09-29T07:48:52;13.00;77.40
37052;DHT22;22964;52.272;13.356;2022-09-29T07:51:19;13.10;77.40
37052;DHT22;22964;52.272;13.356;2022-09-29T07:53:45;13.10;77.40
37052;DHT22;22964;52.272;13.356;2022-09-29T07:56:13;13.20;77.30
37052;DHT22;22964;52.272;13.356;2022-09-29T07:58:40;13.20;77.40
37052;DHT22;22964;52.272;13.356;2022-09-29T08:01:08;13.30;77.30
37052;DHT22;22964;52.272;13.356;2022-09-29T08:03:41;13.30;77.30
37052;DHT22;22964;52.272;13.356;2022-09-29T08:06:08;13.40;77.20
37052;DHT22;22964;52.272;13.356;2022-09-29T08:08:35;13.40;77.00
37052;DHT22;22964;52.272;13.356;2022-09-29T08:11:07;13.50;77.30
37052;DHT22;22964;52.272;13.356;2022-09-29T08:13:33;13.50;77.30
37052;DHT22;22964;52.272;13.356;2022-09-29T08:16:02;13.60;77.10
37052;DHT22;22964;52.272;13.356;2022-09-29T08:18:29;13.70;77.30
37052;DHT22;22964;52.272;13.356;2022-09-29T08:20:56;13.70;77.30
37052;DHT22;22964;52.272;13.356;2022-09-29T08:23:22;13.80;77.50
37052;DHT22;22964;52.272;13.356;2022-09-29T08:25:49;13.80;77.30
37052;DHT22;22964;52.272;13.356;2022-09-29T08:28:15;13.90;77.20
37052;DHT22;22964;52.272;13.356;2022-09-29T08:30:41;14.00;77.00
37052;DHT22;22964;52.272;13.356;2022-09-29T08:33:07;14.00;77.00
37052;DHT22;22964;52.272;13.356;2022-09-29T08:35:39;14.10;77.00
37052;DHT22;22964;52.272;13.356;2022-09-29T08:38:05;14.20;77.10
37052;DHT22;22964;52.272;13.356;2022-09-29T08:40:31;14.30;77.20
37052;DHT22;22964;52.272;13.356;2022-09-29T08:46:01;14.40;78.10
37052;DHT22;22964;52.272;13.356;2022-09-29T08:48:40;14.50;77.20
37052;DHT22;22964;52.272;13.356;2022-09-29T08:51:32;14.60;76.80
37052;DHT22;22964;52.272;13.356;2022-09-29T08:54:05;14.70;76.50
37052;DHT22;22964;52.272;13.356;2022-09-29T08:56:32;14.70;76.00
37052;DHT22;22964;52.272;13.356;2022-09-29T08:58:59;14.80;75.80
37052;DHT22;22964;52.272;13.356;2022-09-29T09:01:35;14.90;75.60
37052;DHT22;22964;52.272;13.356;2022-09-29T09:12:37;15.10;75.90
37052;DHT22;22964;52.272;13.356;2022-09-29T09:15:20;15.30;75.50
37052;DHT22;22964;52.272;13.356;2022-09-29T09:20:39;15.40;75.00
37052;DHT22;22964;52.272;13.356;2022-09-29T09:23:21;15.50;74.90
37052;DHT22;22964;52.272;13.356;2022-09-29T09:26:02;15.70;74.70
37052;DHT22;22964;52.272;13.356;2022-09-29T09:28:48;15.70;74.30
37052;DHT22;22964;52.272;13.356;2022-09-29T09:31:21;15.80;73.70
37052;DHT22;22964;52.272;13.356;2022-09-29T09:33:53;15.90;74.00
37052;DHT22;22964;52.272;13.356;2022-09-29T09:36:34;16.00;73.50
37052;DHT22;22964;52.272;13.356;2022-09-29T09:41:27;16.20;73.50
37052;DHT22;22964;52.272;13.356;2022-09-29T09:43:57;16.20;73.00
37052;DHT22;22964;52.272;13.356;2022-09-29T09:46:34;16.30;72.50
37052;DHT22;22964;52.272;13.356;2022-09-29T09:49:25;16.40;72.10
37052;DHT22;22964;52.272;13.356;2022-09-29T09:52:01;16.50;71.40
37052;DHT22;22964;52.272;13.356;2022-09-29T09:54:29;16.50;71.80
37052;DHT22;22964;52.272;13.356;2022-09-29T09:59:50;16.70;71.60
37052;DHT22;22964;52.272;13.356;2022-09-29T10:02:20;16.70;70.80
37052;DHT22;22964;52.272;13.356;2022-09-29T10:04:53;16.80;71.20
37052;DHT22;22964;52.272;13.356;2022-09-29T10:07:22;16.90;70.60
37052;DHT22;22964;52.272;13.356;2022-09-29T10:09:49;16.90;70.50
37052;DHT22;22964;52.272;13.356;2022-09-29T10:12:19;17.00;70.20
37052;DHT22;22964;52.272;13.356;2022-09-29T10:14:56;17.10;69.60
37052;DHT22;22964;52.272;13.356;2022-09-29T10:17:26;17.10;68.90
37052;DHT22;22964;52.272;13.356;2022-09-29T10:20:00;17.30;69.10
37052;DHT22;22964;52.272;13.356;2022-09-29T10:22:28;17.30;69.10
37052;DHT22;22964;52.272;13.356;2022-09-29T10:27:32;17.40;68.10
37052;DHT22;22964;52.272;13.356;2022-09-29T10:29:58;17.50;68.50
37052;DHT22;22964;52.272;13.356;2022-09-29T10:32:31;17.60;68.20
37052;DHT22;22964;52.272;13.356;2022-09-29T10:35:19;17.60;67.50
37052;DHT22;22964;52.272;13.356;2022-09-29T10:37:49;17.70;67.70
37052;DHT22;22964;52.272;13.356;2022-09-29T10:40:19;17.80;67.90
37052;DHT22;22964;52.272;13.356;2022-09-29T10:42:49;17.90;67.30
37052;DHT22;22964;52.272;13.356;2022-09-29T10:45:18;18.00;66.60
37052;DHT22;22964;52.272;13.356;2022-09-29T10:47:46;18.10;65.90
37052;DHT22;22964;52.272;13.356;2022-09-29T10:50:17;18.10;65.90
37052;DHT22;22964;52.272;13.356;2022-09-29T10:52:55;18.20;66.40
37052;DHT22;22964;52.272;13.356;2022-09-29T10:55:23;18.30;65.40
37052;DHT22;22964;52.272;13.356;2022-09-29T10:57:51;18.50;66.70
37052;DHT22;22964;52.272;13.356;2022-09-29T11:00:37;18.60;65.60
37052;DHT22;22964;52.272;13.356;2022-09-29T11:03:21;18.80;64.20
37052;DHT22;22964;52.272;13.356;2022-09-29T11:06:10;19.00;63.30
37052;DHT22;22964;52.272;13.356;2022-09-29T11:09:06;19.10;62.20
37052;DHT22;22964;52.272;13.356;2022-09-29T11:17:00;19.50;61.60
37052;DHT22;22964;52.272;13.356;2022-09-29T11:19:28;19.60;62.60
37052;DHT22;22964;52.272;13.356;2022-09-29T11:22:13;19.70;61.90
37052;DHT22;22964;52.272;13.356;2022-09-29T11:30:05;19.80;61.40
37052;DHT22;22964;52.272;13.356;2022-09-29T11:54:44;20.30;57.80
37052;DHT22;22964;52.272;13.356;2022-09-29T11:57:13;20.40;59.40
37052;DHT22;22964;52.272;13.356;2022-09-29T12:08:41;20.70;56.90
37052;DHT22;22964;52.272;13.356;2022-09-29T12:14:14;20.90;57.60
37052;DHT22;22964;52.272;13.356;2022-09-29T12:16:51;21.00;56.60
37052;DHT22;22964;52.272;13.356;2022-09-29T12:19:21;21.20;56.40
37052;DHT22;22964;52.272;13.356;2022-09-29T12:21:52;21.20;56.30
37052;DHT22;22964;52.272;13.356;2022-09-29T12:26:53;21.30;55.70
37052;DHT22;22964;52.272;13.356;2022-09-29T12:32:00;21.40;55.10
37052;DHT22;22964;52.272;13.356;2022-09-29T12:34:46;21.40;55.70
37052;DHT22;22964;52.272;13.356;2022-09-29T12:40:16;21.50;54.50
37052;DHT22;22964;52.272;13.356;2022-09-29T12:45:43;21.70;53.00
37052;DHT22;22964;52.272;13.356;2022-09-29T12:56:28;21.90;53.20
37052;DHT22;22964;52.272;13.356;2022-09-29T12:59:26;21.90;51.90
37052;DHT22;22964;52.272;13.356;2022-09-29T13:01:55;21.80;53.50
37052;DHT22;22964;52.272;13.356;2022-09-29T13:04:49;21.80;52.80
37052;DHT22;22964;52.272;13.356;2022-09-29T13:15:57;22.00;50.00
37052;DHT22;22964;52.272;13.356;2022-09-29T13:24:41;21.90;50.10
37052;DHT22;22964;52.272;13.356;2022-09-29T13:29:42;21.80;51.60
37052;DHT22;22964;52.272;13.356;2022-09-29T13:32:12;21.70;50.10
37052;DHT22;22964;52.272;13.356;2022-09-29T13:34:38;21.70;51.00
37052;DHT22;22964;52.272;13.356;2022-09-29T13:37:13;21.70;50.20
37052;DHT22;22964;52.272;13.356;2022-09-29T13:39:51;21.70;49.50
37052;DHT22;22964;52.272;13.356;2022-09-29T13:47:58;21.80;48.90
37052;DHT22;22964;52.272;13.356;2022-09-29T13:50:42;21.90;49.20
37052;DHT22;22964;52.272;13.356;2022-09-29T13:55:52;22.00;48.60
37052;DHT22;22964;52.272;13.356;2022-09-29T14:00:48;22.10;48.90
37052;DHT22;22964;52.272;13.356;2022-09-29T14:03:27;22.20;50.00
37052;DHT22;22964;52.272;13.356;2022-09-29T14:11:27;22.30;47.70
37052;DHT22;22964;52.272;13.356;2022-09-29T14:17:10;22.30;47.70
37052;DHT22;22964;52.272;13.356;2022-09-29T14:20:07;22.30;47.30
37052;DHT22;22964;52.272;13.356;2022-09-29T14:40:31;22.40;46.60
37052;DHT22;22964;52.272;13.356;2022-09-29T14:43:10;22.40;47.10
37052;DHT22;22964;52.272;13.356;2022-09-29T14:49:05;22.20;46.00
37052;DHT22;22964;52.272;13.356;2022-09-29T15:00:17;21.80;46.20
37052;DHT22;22964;52.272;13.356;2022-09-29T15:02:46;21.70;47.40
37052;DHT22;22964;52.272;13.356;2022-09-29T15:05:21;21.60;47.20
37052;DHT22;22964;52.272;13.356;2022-09-29T15:07:48;21.40;47.20
37052;DHT22;22964;52.272;13.356;2022-09-29T15:10:30;21.30;47.10
37052;DHT22;22964;52.272;13.356;2022-09-29T15:13:30;21.20;46.40
37052;DHT22;22964;52.272;13.356;2022-09-29T15:22:10;21.00;47.10
37052;DHT22;22964;52.272;13.356;2022-09-29T15:27:20;20.80;47.50
37052;DHT22;22964;52.272;13.356;2022-09-29T15:29:47;20.70;48.50
37052;DHT22;22964;52.272;13.356;2022-09-29T15:32:27;20.60;48.50
37052;DHT22;22964;52.272;13.356;2022-09-29T15:35:01;20.50;48.10
37052;DHT22;22964;52.272;13.356;2022-09-29T15:40:15;20.30;48.00
37052;DHT22;22964;52.272;13.356;2022-09-29T15:42:41;20.20;48.80
37052;DHT22;22964;52.272;13.356;2022-09-29T15:45:16;20.20;49.00
37052;DHT22;22964;52.272;13.356;2022-09-29T15:47:44;20.10;48.50
37052;DHT22;22964;52.272;13.356;2022-09-29T15:50:24;20.00;49.20
37052;DHT22;22964;52.272;13.356;2022-09-29T15:52:50;20.00;48.90
37052;DHT22;22964;52.272;13.356;2022-09-29T15:55:20;19.90;49.50
37052;DHT22;22964;52.272;13.356;2022-09-29T15:57:48;19.90;49.60
37052;DHT22;22964;52.272;13.356;2022-09-29T16:02:48;19.70;49.80
37052;DHT22;22964;52.272;13.356;2022-09-29T16:05:18;19.60;50.00
37052;DHT22;22964;52.272;13.356;2022-09-29T16:07:53;19.50;50.20
37052;DHT22;22964;52.272;13.356;2022-09-29T16:10:27;19.40;50.50
37052;DHT22;22964;52.272;13.356;2022-09-29T16:13:00;19.40;51.00
37052;DHT22;22964;52.272;13.356;2022-09-29T16:15:33;19.30;50.90
37052;DHT22;22964;52.272;13.356;2022-09-29T16:18:03;19.20;51.00
37052;DHT22;22964;52.272;13.356;2022-09-29T16:20:32;19.10;51.20
37052;DHT22;22964;52.272;13.356;2022-09-29T16:28:34;18.90;51.90
37052;DHT22;22964;52.272;13.356;2022-09-29T16:31:09;18.80;52.00
37052;DHT22;22964;52.272;13.356;2022-09-29T16:33:44;18.70;52.00
37052;DHT22;22964;52.272;13.356;2022-09-29T16:36:17;18.60;52.30
37052;DHT22;22964;52.272;13.356;2022-09-29T16:38:45;18.40;52.50
37052;DHT22;22964;52.272;13.356;2022-09-29T16:41:38;18.40;52.70
37052;DHT22;22964;52.272;13.356;2022-09-29T16:47:20;18.10;53.10
37052;DHT22;22964;52.272;13.356;2022-09-29T16:49:35;18.00;53.20
37052;DHT22;22964;52.272;13.356;2022-09-29T16:54:45;17.80;53.70
37052;DHT22;22964;52.272;13.356;2022-09-29T16:57:17;17.70;53.90
37052;DHT22;22964;52.272;13.356;2022-09-29T16:59:44;17.60;54.00
37052;DHT22;22964;52.272;13.356;2022-09-29T17:02:11;17.50;54.10
37052;DHT22;22964;52.272;13.356;2022-09-29T17:04:37;17.40;54.20
37052;DHT22;22964;52.272;13.356;2022-09-29T17:07:03;17.30;54.40
37052;DHT22;22964;52.272;13.356;2022-09-29T17:09:29;17.30;54.60
37052;DHT22;22964;52.272;13.356;2022-09-29T17:11:55;17.20;54.70
37052;DHT22;22964;52.272;13.356;2022-09-29T17:14:21;17.10;54.80
37052;DHT22;22964;52.272;13.356;2022-09-29T17:16:48;17.10;55.00
37052;DHT22;22964;52.272;13.356;2022-09-29T17:19:16;17.10;55.20
37052;DHT22;22964;52.272;13.356;2022-09-29T17:21:42;17.00;55.20
37052;DHT22;22964;52.272;13.356;2022-09-29T17:24:07;17.00;55.40
37052;DHT22;22964;52.272;13.356;2022-09-29T17:26:42;17.00;55.40
37052;DHT22;22964;52.272;13.356;2022-09-29T17:29:27;16.90;56.20
37052;DHT22;22964;52.272;13.356;2022-09-29T17:31:53;16.90;55.40
37052;DHT22;22964;52.272;13.356;2022-09-29T17:34:19;16.80;55.50
37052;DHT22;22964;52.272;13.356;2022-09-29T17:36:51;16.90;55.50
37052;DHT22;22964;52.272;13.356;2022-09-29T17:39:16;16.80;55.70
37052;DHT22;22964;52.272;13.356;2022-09-29T17:41:42;16.80;55.40
37052;DHT22;22964;52.272;13.356;2022-09-29T17:44:08;16.70;55.50
37052;DHT22;22964;52.272;13.356;2022-09-29T17:46:35;16.70;55.70
37052;DHT22;22964;52.272;13.356;2022-09-29T17:49:01;16.60;55.80
37052;DHT22;22964;52.272;13.356;2022-09-29T17:51:27;16.60;55.90
37052;DHT22;22964;52.272;13.356;2022-09-29T17:53:53;16.60;56.00
37052;DHT22;22964;52.272;13.356;2022-09-29T17:56:23;16.50;56.10
37052;DHT22;22964;52.272;13.356;2022-09-29T17:58:51;16.50;56.20
37052;DHT22;22964;52.272;13.356;2022-09-29T18:01:20;16.40;56.20
37052;DHT22;22964;52.272;13.356;2022-09-29T18:03:47;16.40;56.20
37052;DHT22;22964;52.272;13.356;2022-09-29T18:06:17;16.40;56.30
37052;DHT22;22964;52.272;13.356;2022-09-29T18:08:47;16.40;56.40
37052;DHT22;22964;52.272;13.356;2022-09-29T18:11:16;16.30;56.30
37052;DHT22;22964;52.272;13.356;2022-09-29T18:13:42;16.30;56.40
37052;DHT22;22964;52.272;13.356;2022-09-29T18:16:11;16.30;56.40
37052;DHT22;22964;52.272;13.356;2022-09-29T18:18:37;16.30;56.50
37052;DHT22;22964;52.272;13.356;2022-09-29T18:21:03;16.20;56.40
37052;DHT22;22964;52.272;13.356;2022-09-29T18:23:30;16.20;56.40
37052;DHT22;22964;52.272;13.356;2022-09-29T18:25:56;16.20;56.40
37052;DHT22;22964;52.272;13.356;2022-09-29T18:28:22;16.10;56.50
37052;DHT22;22964;52.272;13.356;2022-09-29T18:30:50;16.10;56.50
37052;DHT22;22964;52.272;13.356;2022-09-29T18:33:19;16.10;56.60
37052;DHT22;22964;52.272;13.356;2022-09-29T18:35:51;16.00;57.30
37052;DHT22;22964;52.272;13.356;2022-09-29T18:38:17;16.00;56.70
37052;DHT22;22964;52.272;13.356;2022-09-29T18:40:43;16.00;56.70
37052;DHT22;22964;52.272;13.356;2022-09-29T18:43:11;15.90;56.60
37052;DHT22;22964;52.272;13.356;2022-09-29T18:45:38;15.90;56.70
37052;DHT22;22964;52.272;13.356;2022-09-29T18:48:06;15.80;56.70
37052;DHT22;22964;52.272;13.356;2022-09-29T18:50:41;15.80;57.40
37052;DHT22;22964;52.272;13.356;2022-09-29T18:53:09;15.70;56.80